sensor_id;sensor_type;location;lat;lon;timestamp;P1;durP1;ratioP1;P2;durP2;ratioP2
53925;SDS011;39836;52.754;6.866;2023-04-25T00:01:45;17.85;;;6.50;;
53925;SDS011;39836;52.754;6.866;2023-04-25T00:04:11;21.02;;;6.75;;
53925;SDS011;39836;52.754;6.866;2023-04-25T00:06:37;28.73;;;6.07;;
53925;SDS011;39836;52.754;6.866;2023-04-25T00:09:04;24.45;;;6.57;;
53925;SDS011;39836;52.754;6.866;2023-04-25T00:11:32;32.30;;;7.20;;
53925;SDS011;39836;52.754;6.866;2023-04-25T00:13:58;27.85;;;6.38;;
53925;SDS011;39836;52.754;6.866;2023-04-25T00:16:26;27.80;;;7.25;;
53925;SDS011;39836;52.754;6.866;2023-04-25T00:18:53;29.77;;;6.95;;
53925;SDS011;39836;52.754;6.866;2023-04-25T00:21:19;20.58;;;7.28;;
53925;SDS011;39836;52.754;6.866;2023-04-25T00:23:46;24.75;;;5.60;;
53925;SDS011;39836;52.754;6.866;2023-04-25T00:26:12;29.42;;;6.03;;
53925;SDS011;39836;52.754;6.866;2023-04-25T00:28:38;27.45;;;6.78;;
53925;SDS011;39836;52.754;6.866;2023-04-25T00:31:05;20.80;;;6.78;;
53925;SDS011;39836;52.754;6.866;2023-04-25T00:33:30;32.55;;;7.68;;
53925;SDS011;39836;52.754;6.866;2023-04-25T00:35:56;32.13;;;6.95;;
53925;SDS011;39836;52.754;6.866;2023-04-25T00:38:22;34.92;;;6.85;;
53925;SDS011;39836;52.754;6.866;2023-04-25T00:40:47;29.25;;;6.55;;
53925;SDS011;39836;52.754;6.866;2023-04-25T00:43:13;27.05;;;6.38;;
53925;SDS011;39836;52.754;6.866;2023-04-25T00:45:39;29.08;;;6.97;;
53925;SDS011;39836;52.754;6.866;2023-04-25T00:48:05;27.83;;;6.78;;
53925;SDS011;39836;52.754;6.866;2023-04-25T00:50:32;31.52;;;7.15;;
53925;SDS011;39836;52.754;6.866;2023-04-25T00:52:59;26.55;;;6.95;;
53925;SDS011;39836;52.754;6.866;2023-04-25T00:55:26;30.48;;;6.78;;
53925;SDS011;39836;52.754;6.866;2023-04-25T00:57:51;19.67;;;6.97;;
53925;SDS011;39836;52.754;6.866;2023-04-25T01:00:18;36.63;;;6.88;;
53925;SDS011;39836;52.754;6.866;2023-04-25T01:02:44;31.02;;;6.43;;
53925;SDS011;39836;52.754;6.866;2023-04-25T01:05:11;37.28;;;8.25;;
53925;SDS011;39836;52.754;6.866;2023-04-25T01:07:37;27.05;;;7.88;;
53925;SDS011;39836;52.754;6.866;2023-04-25T01:10:03;29.98;;;7.00;;
53925;SDS011;39836;52.754;6.866;2023-04-25T01:12:31;24.50;;;6.47;;
53925;SDS011;39836;52.754;6.866;2023-04-25T01:14:56;27.40;;;6.65;;
53925;SDS011;39836;52.754;6.866;2023-04-25T01:17:22;26.55;;;7.22;;
53925;SDS011;39836;52.754;6.866;2023-04-25T01:19:48;24.95;;;5.90;;
53925;SDS011;39836;52.754;6.866;2023-04-25T01:22:15;30.15;;;7.43;;
53925;SDS011;39836;52.754;6.866;2023-04-25T01:24:42;29.48;;;7.10;;
53925;SDS011;39836;52.754;6.866;2023-04-25T01:27:08;18.23;;;6.07;;
53925;SDS011;39836;52.754;6.866;2023-04-25T01:29:34;28.40;;;6.10;;
53925;SDS011;39836;52.754;6.866;2023-04-25T01:32:01;23.77;;;6.55;;
53925;SDS011;39836;52.754;6.866;2023-04-25T01:34:26;27.80;;;6.32;;
53925;SDS011;39836;52.754;6.866;2023-04-25T01:36:52;27.63;;;6.25;;
53925;SDS011;39836;52.754;6.866;2023-04-25T01:39:19;24.63;;;6.78;;
53925;SDS011;39836;52.754;6.866;2023-04-25T01:41:48;29.52;;;6.63;;
53925;SDS011;39836;52.754;6.866;2023-04-25T01:44:14;25.23;;;6.70;;
53925;SDS011;39836;52.754;6.866;2023-04-25T01:46:40;34.83;;;7.07;;
53925;SDS011;39836;52.754;6.866;2023-04-25T01:49:06;30.98;;;7.47;;
53925;SDS011;39836;52.754;6.866;2023-04-25T01:51:32;26.42;;;7.65;;
53925;SDS011;39836;52.754;6.866;2023-04-25T01:53:58;27.48;;;7.15;;
53925;SDS011;39836;52.754;6.866;2023-04-25T01:56:24;32.58;;;7.97;;
53925;SDS011;39836;52.754;6.866;2023-04-25T01:58:50;32.38;;;8.30;;
53925;SDS011;39836;52.754;6.866;2023-04-25T02:01:16;42.88;;;8.02;;
53925;SDS011;39836;52.754;6.866;2023-04-25T02:03:42;17.48;;;6.45;;
53925;SDS011;39836;52.754;6.866;2023-04-25T02:06:08;27.02;;;6.93;;
53925;SDS011;39836;52.754;6.866;2023-04-25T02:08:34;21.48;;;6.47;;
53925;SDS011;39836;52.754;6.866;2023-04-25T02:11:02;25.60;;;6.25;;
53925;SDS011;39836;52.754;6.866;2023-04-25T02:13:28;27.20;;;7.50;;
53925;SDS011;39836;52.754;6.866;2023-04-25T02:15:54;23.10;;;6.80;;
53925;SDS011;39836;52.754;6.866;2023-04-25T02:18:19;24.80;;;5.75;;
53925;SDS011;39836;52.754;6.866;2023-04-25T02:20:46;23.92;;;7.28;;
53925;SDS011;39836;52.754;6.866;2023-04-25T02:23:11;23.60;;;6.85;;
53925;SDS011;39836;52.754;6.866;2023-04-25T02:25:37;23.10;;;6.22;;
53925;SDS011;39836;52.754;6.866;2023-04-25T02:28:03;22.20;;;6.22;;
53925;SDS011;39836;52.754;6.866;2023-04-25T02:30:29;35.85;;;7.57;;
53925;SDS011;39836;52.754;6.866;2023-04-25T02:32:54;20.98;;;6.78;;
53925;SDS011;39836;52.754;6.866;2023-04-25T02:35:21;24.42;;;6.40;;
53925;SDS011;39836;52.754;6.866;2023-04-25T02:37:47;25.55;;;7.70;;
53925;SDS011;39836;52.754;6.866;2023-04-25T02:40:12;28.63;;;7.22;;
53925;SDS011;39836;52.754;6.866;2023-04-25T02:42:38;25.23;;;8.55;;
53925;SDS011;39836;52.754;6.866;2023-04-25T02:45:04;35.15;;;8.07;;
53925;SDS011;39836;52.754;6.866;2023-04-25T02:47:30;29.05;;;7.88;;
53925;SDS011;39836;52.754;6.866;2023-04-25T02:49:56;26.52;;;6.35;;
53925;SDS011;39836;52.754;6.866;2023-04-25T02:52:21;23.30;;;5.97;;
53925;SDS011;39836;52.754;6.866;2023-04-25T02:54:47;37.42;;;6.25;;
53925;SDS011;39836;52.754;6.866;2023-04-25T02:57:13;35.45;;;7.15;;
53925;SDS011;39836;52.754;6.866;2023-04-25T02:59:38;25.17;;;6.38;;
53925;SDS011;39836;52.754;6.866;2023-04-25T03:02:04;25.80;;;5.78;;
53925;SDS011;39836;52.754;6.866;2023-04-25T03:04:30;32.17;;;9.50;;
53925;SDS011;39836;52.754;6.866;2023-04-25T03:06:56;30.50;;;6.85;;
53925;SDS011;39836;52.754;6.866;2023-04-25T03:09:22;33.83;;;7.32;;
53925;SDS011;39836;52.754;6.866;2023-04-25T03:11:47;23.80;;;6.18;;
53925;SDS011;39836;52.754;6.866;2023-04-25T03:14:13;23.95;;;6.57;;
53925;SDS011;39836;52.754;6.866;2023-04-25T03:16:39;18.67;;;5.75;;
53925;SDS011;39836;52.754;6.866;2023-04-25T03:19:05;22.80;;;5.68;;
53925;SDS011;39836;52.754;6.866;2023-04-25T03:21:31;22.65;;;5.63;;
53925;SDS011;39836;52.754;6.866;2023-04-25T03:23:58;26.05;;;6.05;;
53925;SDS011;39836;52.754;6.866;2023-04-25T03:26:24;29.70;;;5.88;;
53925;SDS011;39836;52.754;6.866;2023-04-25T03:28:50;26.30;;;5.32;;
53925;SDS011;39836;52.754;6.866;2023-04-25T03:31:15;28.17;;;5.47;;
53925;SDS011;39836;52.754;6.866;2023-04-25T03:33:41;25.05;;;5.35;;
53925;SDS011;39836;52.754;6.866;2023-04-25T03:36:07;22.77;;;5.68;;
53925;SDS011;39836;52.754;6.866;2023-04-25T03:38:33;23.92;;;5.72;;
53925;SDS011;39836;52.754;6.866;2023-04-25T03:40:58;24.42;;;5.03;;
53925;SDS011;39836;52.754;6.866;2023-04-25T03:43:24;16.02;;;4.55;;
53925;SDS011;39836;52.754;6.866;2023-04-25T03:45:50;19.70;;;5.30;;
53925;SDS011;39836;52.754;6.866;2023-04-25T03:48:16;21.13;;;4.95;;
53925;SDS011;39836;52.754;6.866;2023-04-25T03:50:41;30.33;;;5.13;;
53925;SDS011;39836;52.754;6.866;2023-04-25T03:53:07;26.08;;;4.88;;
53925;SDS011;39836;52.754;6.866;2023-04-25T03:55:33;22.48;;;5.28;;
53925;SDS011;39836;52.754;6.866;2023-04-25T03:57:58;17.42;;;4.72;;
53925;SDS011;39836;52.754;6.866;2023-04-25T04:00:24;15.68;;;4.47;;
53925;SDS011;39836;52.754;6.866;2023-04-25T04:02:50;19.30;;;4.32;;
53925;SDS011;39836;52.754;6.866;2023-04-25T04:05:16;22.00;;;4.22;;
53925;SDS011;39836;52.754;6.866;2023-04-25T04:07:42;19.30;;;4.78;;
53925;SDS011;39836;52.754;6.866;2023-04-25T04:10:08;25.75;;;5.70;;
53925;SDS011;39836;52.754;6.866;2023-04-25T04:12:37;23.38;;;7.13;;
53925;SDS011;39836;52.754;6.866;2023-04-25T04:15:06;19.17;;;4.97;;
53925;SDS011;39836;52.754;6.866;2023-04-25T04:17:32;21.52;;;4.53;;
53925;SDS011;39836;52.754;6.866;2023-04-25T04:19:59;14.30;;;4.18;;
53925;SDS011;39836;52.754;6.866;2023-04-25T04:22:24;20.92;;;5.32;;
53925;SDS011;39836;52.754;6.866;2023-04-25T04:24:50;15.07;;;3.90;;
53925;SDS011;39836;52.754;6.866;2023-04-25T04:27:19;19.77;;;4.45;;
53925;SDS011;39836;52.754;6.866;2023-04-25T04:29:46;14.68;;;3.40;;
53925;SDS011;39836;52.754;6.866;2023-04-25T04:32:12;13.27;;;3.92;;
53925;SDS011;39836;52.754;6.866;2023-04-25T04:34:39;12.98;;;3.35;;
53925;SDS011;39836;52.754;6.866;2023-04-25T04:37:06;12.90;;;3.90;;
53925;SDS011;39836;52.754;6.866;2023-04-25T04:39:32;9.00;;;3.47;;
53925;SDS011;39836;52.754;6.866;2023-04-25T04:41:58;15.48;;;3.90;;
53925;SDS011;39836;52.754;6.866;2023-04-25T04:44:26;10.23;;;2.90;;
53925;SDS011;39836;52.754;6.866;2023-04-25T04:46:52;11.25;;;2.80;;
53925;SDS011;39836;52.754;6.866;2023-04-25T04:49:17;16.63;;;3.30;;
53925;SDS011;39836;52.754;6.866;2023-04-25T04:51:43;16.60;;;3.20;;
53925;SDS011;39836;52.754;6.866;2023-04-25T04:54:09;11.13;;;3.58;;
53925;SDS011;39836;52.754;6.866;2023-04-25T04:56:35;14.70;;;3.78;;
53925;SDS011;39836;52.754;6.866;2023-04-25T04:59:01;13.90;;;3.70;;
53925;SDS011;39836;52.754;6.866;2023-04-25T05:01:27;9.85;;;3.42;;
53925;SDS011;39836;52.754;6.866;2023-04-25T05:03:55;10.70;;;3.63;;
53925;SDS011;39836;52.754;6.866;2023-04-25T05:06:25;9.65;;;2.70;;
53925;SDS011;39836;52.754;6.866;2023-04-25T05:08:54;11.23;;;4.05;;
53925;SDS011;39836;52.754;6.866;2023-04-25T05:11:21;8.98;;;2.60;;
53925;SDS011;39836;52.754;6.866;2023-04-25T05:13:48;9.40;;;2.70;;
53925;SDS011;39836;52.754;6.866;2023-04-25T05:16:14;12.90;;;2.78;;
53925;SDS011;39836;52.754;6.866;2023-04-25T05:18:40;9.65;;;2.90;;
53925;SDS011;39836;52.754;6.866;2023-04-25T05:21:06;11.23;;;3.30;;
53925;SDS011;39836;52.754;6.866;2023-04-25T05:23:32;13.80;;;3.00;;
53925;SDS011;39836;52.754;6.866;2023-04-25T05:25:58;11.00;;;2.92;;
53925;SDS011;39836;52.754;6.866;2023-04-25T05:28:24;9.57;;;2.97;;
53925;SDS011;39836;52.754;6.866;2023-04-25T05:30:50;12.10;;;3.00;;
53925;SDS011;39836;52.754;6.866;2023-04-25T05:33:16;11.98;;;3.67;;
53925;SDS011;39836;52.754;6.866;2023-04-25T05:35:42;11.52;;;3.53;;
53925;SDS011;39836;52.754;6.866;2023-04-25T05:38:07;11.77;;;3.20;;
53925;SDS011;39836;52.754;6.866;2023-04-25T05:40:33;11.57;;;3.42;;
53925;SDS011;39836;52.754;6.866;2023-04-25T05:42:59;9.68;;;3.05;;
53925;SDS011;39836;52.754;6.866;2023-04-25T05:45:24;9.13;;;2.60;;
53925;SDS011;39836;52.754;6.866;2023-04-25T05:47:50;13.82;;;3.08;;
53925;SDS011;39836;52.754;6.866;2023-04-25T05:50:15;11.52;;;3.30;;
53925;SDS011;39836;52.754;6.866;2023-04-25T05:52:41;14.43;;;3.55;;
53925;SDS011;39836;52.754;6.866;2023-04-25T05:55:07;12.32;;;3.38;;
53925;SDS011;39836;52.754;6.866;2023-04-25T05:57:33;10.95;;;3.20;;
53925;SDS011;39836;52.754;6.866;2023-04-25T06:00:00;14.52;;;3.33;;
53925;SDS011;39836;52.754;6.866;2023-04-25T06:02:26;12.07;;;3.25;;
53925;SDS011;39836;52.754;6.866;2023-04-25T06:04:51;10.75;;;3.10;;
53925;SDS011;39836;52.754;6.866;2023-04-25T06:07:18;12.73;;;3.05;;
53925;SDS011;39836;52.754;6.866;2023-04-25T06:09:45;16.85;;;3.45;;
53925;SDS011;39836;52.754;6.866;2023-04-25T06:12:10;16.45;;;3.85;;
53925;SDS011;39836;52.754;6.866;2023-04-25T06:14:36;17.98;;;3.97;;
53925;SDS011;39836;52.754;6.866;2023-04-25T06:17:02;13.38;;;3.15;;
53925;SDS011;39836;52.754;6.866;2023-04-25T06:19:35;15.85;;;4.10;;
53925;SDS011;39836;52.754;6.866;2023-04-25T06:22:01;14.80;;;3.80;;
53925;SDS011;39836;52.754;6.866;2023-04-25T06:24:27;17.17;;;4.68;;
53925;SDS011;39836;52.754;6.866;2023-04-25T06:26:53;15.85;;;3.70;;
53925;SDS011;39836;52.754;6.866;2023-04-25T06:29:19;14.20;;;3.40;;
53925;SDS011;39836;52.754;6.866;2023-04-25T06:31:45;21.02;;;4.80;;
53925;SDS011;39836;52.754;6.866;2023-04-25T06:34:11;18.60;;;4.15;;
53925;SDS011;39836;52.754;6.866;2023-04-25T06:36:36;12.50;;;3.20;;
53925;SDS011;39836;52.754;6.866;2023-04-25T06:39:02;19.02;;;4.00;;
53925;SDS011;39836;52.754;6.866;2023-04-25T06:41:28;10.45;;;2.42;;
53925;SDS011;39836;52.754;6.866;2023-04-25T06:43:54;13.80;;;3.42;;
53925;SDS011;39836;52.754;6.866;2023-04-25T06:46:19;11.95;;;3.65;;
53925;SDS011;39836;52.754;6.866;2023-04-25T06:48:45;18.20;;;3.22;;
53925;SDS011;39836;52.754;6.866;2023-04-25T06:51:11;15.43;;;4.05;;
53925;SDS011;39836;52.754;6.866;2023-04-25T06:53:38;13.20;;;3.55;;
53925;SDS011;39836;52.754;6.866;2023-04-25T06:56:04;17.17;;;4.45;;
53925;SDS011;39836;52.754;6.866;2023-04-25T06:58:31;15.18;;;4.43;;
53925;SDS011;39836;52.754;6.866;2023-04-25T07:00:56;16.10;;;3.47;;
53925;SDS011;39836;52.754;6.866;2023-04-25T07:03:22;14.55;;;3.33;;
53925;SDS011;39836;52.754;6.866;2023-04-25T07:05:48;13.32;;;3.08;;
53925;SDS011;39836;52.754;6.866;2023-04-25T07:08:15;8.82;;;2.70;;
53925;SDS011;39836;52.754;6.866;2023-04-25T07:10:40;7.40;;;2.65;;
53925;SDS011;39836;52.754;6.866;2023-04-25T07:13:06;6.03;;;2.55;;
53925;SDS011;39836;52.754;6.866;2023-04-25T07:15:32;16.52;;;3.35;;
53925;SDS011;39836;52.754;6.866;2023-04-25T07:17:58;7.35;;;3.40;;
53925;SDS011;39836;52.754;6.866;2023-04-25T07:20:23;16.70;;;4.03;;
53925;SDS011;39836;52.754;6.866;2023-04-25T07:22:49;18.63;;;3.17;;
53925;SDS011;39836;52.754;6.866;2023-04-25T07:25:15;17.13;;;4.30;;
53925;SDS011;39836;52.754;6.866;2023-04-25T07:27:41;9.45;;;2.83;;
53925;SDS011;39836;52.754;6.866;2023-04-25T07:30:07;9.57;;;2.53;;
53925;SDS011;39836;52.754;6.866;2023-04-25T07:32:33;11.57;;;2.45;;
53925;SDS011;39836;52.754;6.866;2023-04-25T07:34:59;7.72;;;2.50;;
53925;SDS011;39836;52.754;6.866;2023-04-25T07:37:26;5.90;;;2.80;;
53925;SDS011;39836;52.754;6.866;2023-04-25T07:39:52;7.60;;;2.05;;
53925;SDS011;39836;52.754;6.866;2023-04-25T07:42:18;8.93;;;2.50;;
53925;SDS011;39836;52.754;6.866;2023-04-25T07:44:43;7.20;;;2.38;;
53925;SDS011;39836;52.754;6.866;2023-04-25T07:47:09;11.25;;;2.92;;
53925;SDS011;39836;52.754;6.866;2023-04-25T07:49:35;10.88;;;3.28;;
53925;SDS011;39836;52.754;6.866;2023-04-25T07:52:03;18.20;;;3.78;;
53925;SDS011;39836;52.754;6.866;2023-04-25T07:54:32;9.73;;;2.75;;
53925;SDS011;39836;52.754;6.866;2023-04-25T07:56:58;8.05;;;2.25;;
53925;SDS011;39836;52.754;6.866;2023-04-25T07:59:24;11.85;;;3.20;;
53925;SDS011;39836;52.754;6.866;2023-04-25T08:01:50;12.07;;;3.20;;
53925;SDS011;39836;52.754;6.866;2023-04-25T08:04:16;14.73;;;3.45;;
53925;SDS011;39836;52.754;6.866;2023-04-25T08:06:42;9.40;;;2.53;;
53925;SDS011;39836;52.754;6.866;2023-04-25T08:09:08;6.72;;;2.05;;
53925;SDS011;39836;52.754;6.866;2023-04-25T08:11:34;12.73;;;2.70;;
53925;SDS011;39836;52.754;6.866;2023-04-25T08:14:00;13.00;;;2.60;;
53925;SDS011;39836;52.754;6.866;2023-04-25T08:16:26;16.73;;;3.13;;
53925;SDS011;39836;52.754;6.866;2023-04-25T08:18:53;6.15;;;2.33;;
53925;SDS011;39836;52.754;6.866;2023-04-25T08:21:19;11.43;;;2.95;;
53925;SDS011;39836;52.754;6.866;2023-04-25T08:23:45;7.78;;;2.58;;
53925;SDS011;39836;52.754;6.866;2023-04-25T08:26:11;12.85;;;2.85;;
53925;SDS011;39836;52.754;6.866;2023-04-25T08:28:36;4.20;;;1.98;;
53925;SDS011;39836;52.754;6.866;2023-04-25T08:31:02;4.40;;;2.13;;
53925;SDS011;39836;52.754;6.866;2023-04-25T08:33:28;5.57;;;2.13;;
53925;SDS011;39836;52.754;6.866;2023-04-25T08:35:55;12.43;;;2.60;;
53925;SDS011;39836;52.754;6.866;2023-04-25T08:38:20;4.55;;;1.80;;
53925;SDS011;39836;52.754;6.866;2023-04-25T08:40:48;9.65;;;2.95;;
53925;SDS011;39836;52.754;6.866;2023-04-25T08:43:15;3.70;;;2.20;;
53925;SDS011;39836;52.754;6.866;2023-04-25T08:45:46;9.65;;;2.33;;
53925;SDS011;39836;52.754;6.866;2023-04-25T08:48:13;4.82;;;2.25;;
53925;SDS011;39836;52.754;6.866;2023-04-25T08:50:50;4.95;;;1.70;;
53925;SDS011;39836;52.754;6.866;2023-04-25T08:53:20;7.07;;;1.80;;
53925;SDS011;39836;52.754;6.866;2023-04-25T08:55:50;6.63;;;2.05;;
53925;SDS011;39836;52.754;6.866;2023-04-25T08:58:17;5.15;;;1.75;;
53925;SDS011;39836;52.754;6.866;2023-04-25T09:00:45;8.05;;;2.03;;
53925;SDS011;39836;52.754;6.866;2023-04-25T09:03:12;3.08;;;1.48;;
53925;SDS011;39836;52.754;6.866;2023-04-25T09:05:38;7.82;;;2.05;;
53925;SDS011;39836;52.754;6.866;2023-04-25T09:08:05;12.18;;;2.42;;
53925;SDS011;39836;52.754;6.866;2023-04-25T09:10:31;4.07;;;1.90;;
53925;SDS011;39836;52.754;6.866;2023-04-25T09:13:04;9.02;;;2.40;;
53925;SDS011;39836;52.754;6.866;2023-04-25T09:15:30;15.23;;;2.33;;
53925;SDS011;39836;52.754;6.866;2023-04-25T09:17:57;7.22;;;2.00;;
53925;SDS011;39836;52.754;6.866;2023-04-25T09:20:24;7.05;;;1.95;;
53925;SDS011;39836;52.754;6.866;2023-04-25T09:23:01;11.88;;;2.38;;
53925;SDS011;39836;52.754;6.866;2023-04-25T09:25:28;6.90;;;1.90;;
53925;SDS011;39836;52.754;6.866;2023-04-25T09:28:03;8.88;;;2.60;;
53925;SDS011;39836;52.754;6.866;2023-04-25T09:30:30;11.10;;;2.58;;
53925;SDS011;39836;52.754;6.866;2023-04-25T09:33:03;14.45;;;2.88;;
53925;SDS011;39836;52.754;6.866;2023-04-25T09:35:37;4.63;;;1.80;;
53925;SDS011;39836;52.754;6.866;2023-04-25T09:38:17;13.55;;;2.92;;
53925;SDS011;39836;52.754;6.866;2023-04-25T09:40:44;7.55;;;2.10;;
53925;SDS011;39836;52.754;6.866;2023-04-25T09:43:24;7.80;;;1.90;;
53925;SDS011;39836;52.754;6.866;2023-04-25T09:45:54;3.35;;;1.73;;
53925;SDS011;39836;52.754;6.866;2023-04-25T09:48:23;3.15;;;1.67;;
53925;SDS011;39836;52.754;6.866;2023-04-25T09:51:12;5.85;;;1.90;;
53925;SDS011;39836;52.754;6.866;2023-04-25T09:53:47;5.65;;;2.22;;
53925;SDS011;39836;52.754;6.866;2023-04-25T09:56:16;7.25;;;1.90;;
53925;SDS011;39836;52.754;6.866;2023-04-25T09:58:42;5.18;;;2.08;;
53925;SDS011;39836;52.754;6.866;2023-04-25T10:01:10;6.22;;;1.88;;
53925;SDS011;39836;52.754;6.866;2023-04-25T10:03:37;5.13;;;2.08;;
53925;SDS011;39836;52.754;6.866;2023-04-25T10:06:07;5.22;;;2.20;;
53925;SDS011;39836;52.754;6.866;2023-04-25T10:08:37;3.90;;;2.08;;
53925;SDS011;39836;52.754;6.866;2023-04-25T10:11:06;8.98;;;2.03;;
53925;SDS011;39836;52.754;6.866;2023-04-25T10:13:34;14.02;;;2.80;;
53925;SDS011;39836;52.754;6.866;2023-04-25T10:16:01;9.00;;;2.38;;
53925;SDS011;39836;52.754;6.866;2023-04-25T10:18:29;6.68;;;2.72;;
53925;SDS011;39836;52.754;6.866;2023-04-25T10:20:56;11.18;;;2.50;;
53925;SDS011;39836;52.754;6.866;2023-04-25T10:23:23;8.10;;;2.30;;
53925;SDS011;39836;52.754;6.866;2023-04-25T10:25:50;11.82;;;2.40;;
53925;SDS011;39836;52.754;6.866;2023-04-25T10:28:17;12.98;;;2.53;;
53925;SDS011;39836;52.754;6.866;2023-04-25T10:31:02;5.85;;;2.03;;
53925;SDS011;39836;52.754;6.866;2023-04-25T10:33:39;7.28;;;2.15;;
53925;SDS011;39836;52.754;6.866;2023-04-25T10:38:40;6.05;;;2.10;;
53925;SDS011;39836;52.754;6.866;2023-04-25T10:41:08;4.05;;;1.70;;
53925;SDS011;39836;52.754;6.866;2023-04-25T10:43:42;6.28;;;2.35;;
53925;SDS011;39836;52.754;6.866;2023-04-25T10:46:19;5.40;;;1.90;;
53925;SDS011;39836;52.754;6.866;2023-04-25T10:54:03;4.10;;;1.90;;
53925;SDS011;39836;52.754;6.866;2023-04-25T10:56:36;3.88;;;1.92;;
53925;SDS011;39836;52.754;6.866;2023-04-25T10:59:05;5.55;;;2.30;;
53925;SDS011;39836;52.754;6.866;2023-04-25T11:01:51;6.25;;;2.28;;
53925;SDS011;39836;52.754;6.866;2023-04-25T11:04:24;6.65;;;2.15;;
53925;SDS011;39836;52.754;6.866;2023-04-25T11:09:35;7.72;;;2.22;;
53925;SDS011;39836;52.754;6.866;2023-04-25T11:12:04;11.48;;;2.28;;
53925;SDS011;39836;52.754;6.866;2023-04-25T11:14:30;6.85;;;2.15;;
53925;SDS011;39836;52.754;6.866;2023-04-25T11:16:56;10.48;;;2.50;;
53925;SDS011;39836;52.754;6.866;2023-04-25T11:19:23;6.72;;;2.10;;
53925;SDS011;39836;52.754;6.866;2023-04-25T11:21:50;7.07;;;2.15;;
53925;SDS011;39836;52.754;6.866;2023-04-25T11:24:19;11.15;;;2.47;;
53925;SDS011;39836;52.754;6.866;2023-04-25T11:26:50;13.70;;;3.08;;
53925;SDS011;39836;52.754;6.866;2023-04-25T11:29:15;5.93;;;2.67;;
53925;SDS011;39836;52.754;6.866;2023-04-25T11:31:44;9.38;;;2.60;;
53925;SDS011;39836;52.754;6.866;2023-04-25T11:34:16;13.23;;;2.60;;
53925;SDS011;39836;52.754;6.866;2023-04-25T11:36:43;12.02;;;2.70;;
53925;SDS011;39836;52.754;6.866;2023-04-25T11:39:10;11.85;;;2.60;;
53925;SDS011;39836;52.754;6.866;2023-04-25T11:41:39;13.25;;;2.17;;
53925;SDS011;39836;52.754;6.866;2023-04-25T11:44:06;4.60;;;1.95;;
53925;SDS011;39836;52.754;6.866;2023-04-25T11:46:35;7.97;;;1.92;;
53925;SDS011;39836;52.754;6.866;2023-04-25T11:49:01;2.95;;;1.80;;
53925;SDS011;39836;52.754;6.866;2023-04-25T11:51:27;7.13;;;2.10;;
53925;SDS011;39836;52.754;6.866;2023-04-25T11:53:53;9.27;;;2.35;;
53925;SDS011;39836;52.754;6.866;2023-04-25T11:56:19;9.18;;;1.98;;
53925;SDS011;39836;52.754;6.866;2023-04-25T11:58:59;7.88;;;2.33;;
53925;SDS011;39836;52.754;6.866;2023-04-25T12:01:27;9.85;;;2.20;;
53925;SDS011;39836;52.754;6.866;2023-04-25T12:04:10;9.43;;;2.55;;
53925;SDS011;39836;52.754;6.866;2023-04-25T12:06:37;4.47;;;2.03;;
53925;SDS011;39836;52.754;6.866;2023-04-25T12:09:07;10.70;;;2.70;;
53925;SDS011;39836;52.754;6.866;2023-04-25T12:14:21;6.63;;;2.13;;
53925;SDS011;39836;52.754;6.866;2023-04-25T12:17:01;2.20;;;1.70;;
53925;SDS011;39836;52.754;6.866;2023-04-25T12:19:32;7.82;;;2.00;;
53925;SDS011;39836;52.754;6.866;2023-04-25T12:21:59;3.17;;;1.50;;
53925;SDS011;39836;52.754;6.866;2023-04-25T12:24:28;17.13;;;2.67;;
53925;SDS011;39836;52.754;6.866;2023-04-25T12:26:58;4.03;;;1.70;;
53925;SDS011;39836;52.754;6.866;2023-04-25T12:29:26;6.45;;;2.08;;
53925;SDS011;39836;52.754;6.866;2023-04-25T12:31:53;11.52;;;2.33;;
53925;SDS011;39836;52.754;6.866;2023-04-25T12:34:20;10.10;;;2.25;;
53925;SDS011;39836;52.754;6.866;2023-04-25T12:36:47;5.65;;;2.25;;
53925;SDS011;39836;52.754;6.866;2023-04-25T12:39:20;7.82;;;2.00;;
53925;SDS011;39836;52.754;6.866;2023-04-25T12:41:50;7.18;;;1.83;;
53925;SDS011;39836;52.754;6.866;2023-04-25T12:44:19;2.67;;;1.27;;
53925;SDS011;39836;52.754;6.866;2023-04-25T12:46:46;6.00;;;1.52;;
53925;SDS011;39836;52.754;6.866;2023-04-25T12:49:12;10.27;;;2.13;;
53925;SDS011;39836;52.754;6.866;2023-04-25T12:51:38;6.15;;;1.80;;
53925;SDS011;39836;52.754;6.866;2023-04-25T12:54:04;8.52;;;2.30;;
53925;SDS011;39836;52.754;6.866;2023-04-25T12:56:31;10.95;;;2.25;;
53925;SDS011;39836;52.754;6.866;2023-04-25T12:58:57;4.18;;;1.30;;
53925;SDS011;39836;52.754;6.866;2023-04-25T13:01:24;7.68;;;1.92;;
53925;SDS011;39836;52.754;6.866;2023-04-25T13:03:50;6.88;;;1.60;;
53925;SDS011;39836;52.754;6.866;2023-04-25T13:06:16;7.35;;;2.50;;
53925;SDS011;39836;52.754;6.866;2023-04-25T13:08:43;6.78;;;1.90;;
53925;SDS011;39836;52.754;6.866;2023-04-25T13:11:09;9.60;;;2.20;;
53925;SDS011;39836;52.754;6.866;2023-04-25T13:13:36;8.45;;;2.08;;
53925;SDS011;39836;52.754;6.866;2023-04-25T13:16:02;2.58;;;1.25;;
53925;SDS011;39836;52.754;6.866;2023-04-25T13:18:29;6.40;;;1.60;;
53925;SDS011;39836;52.754;6.866;2023-04-25T13:20:56;6.95;;;1.83;;
53925;SDS011;39836;52.754;6.866;2023-04-25T13:23:22;5.25;;;1.90;;
53925;SDS011;39836;52.754;6.866;2023-04-25T13:25:48;4.30;;;1.48;;
53925;SDS011;39836;52.754;6.866;2023-04-25T13:28:14;11.10;;;1.83;;
53925;SDS011;39836;52.754;6.866;2023-04-25T13:30:40;8.50;;;2.28;;
53925;SDS011;39836;52.754;6.866;2023-04-25T13:33:06;8.45;;;2.60;;
53925;SDS011;39836;52.754;6.866;2023-04-25T13:35:32;7.82;;;2.30;;
53925;SDS011;39836;52.754;6.866;2023-04-25T13:37:59;7.07;;;2.20;;
53925;SDS011;39836;52.754;6.866;2023-04-25T13:40:25;8.95;;;2.22;;
53925;SDS011;39836;52.754;6.866;2023-04-25T13:42:52;8.63;;;2.03;;
53925;SDS011;39836;52.754;6.866;2023-04-25T13:45:18;8.57;;;2.38;;
53925;SDS011;39836;52.754;6.866;2023-04-25T13:47:44;13.02;;;2.40;;
53925;SDS011;39836;52.754;6.866;2023-04-25T13:50:10;7.28;;;1.73;;
53925;SDS011;39836;52.754;6.866;2023-04-25T13:52:38;5.38;;;1.70;;
53925;SDS011;39836;52.754;6.866;2023-04-25T13:55:05;6.53;;;2.20;;
53925;SDS011;39836;52.754;6.866;2023-04-25T13:57:32;6.22;;;2.25;;
53925;SDS011;39836;52.754;6.866;2023-04-25T13:59:58;6.47;;;2.10;;
53925;SDS011;39836;52.754;6.866;2023-04-25T14:02:24;4.00;;;1.63;;
53925;SDS011;39836;52.754;6.866;2023-04-25T14:04:50;5.13;;;1.67;;
53925;SDS011;39836;52.754;6.866;2023-04-25T14:07:16;6.03;;;1.75;;
53925;SDS011;39836;52.754;6.866;2023-04-25T14:09:46;12.93;;;2.05;;
53925;SDS011;39836;52.754;6.866;2023-04-25T14:12:11;10.93;;;2.22;;
53925;SDS011;39836;52.754;6.866;2023-04-25T14:14:37;7.30;;;2.00;;
53925;SDS011;39836;52.754;6.866;2023-04-25T14:17:03;5.95;;;1.70;;
53925;SDS011;39836;52.754;6.866;2023-04-25T14:19:29;6.13;;;1.73;;
53925;SDS011;39836;52.754;6.866;2023-04-25T14:21:55;6.97;;;1.90;;
53925;SDS011;39836;52.754;6.866;2023-04-25T14:24:21;8.32;;;1.95;;
53925;SDS011;39836;52.754;6.866;2023-04-25T14:26:47;7.45;;;1.90;;
53925;SDS011;39836;52.754;6.866;2023-04-25T14:29:12;8.77;;;1.90;;
53925;SDS011;39836;52.754;6.866;2023-04-25T14:31:38;7.28;;;1.70;;
53925;SDS011;39836;52.754;6.866;2023-04-25T14:34:08;9.98;;;2.40;;
53925;SDS011;39836;52.754;6.866;2023-04-25T14:36:34;5.78;;;1.50;;
53925;SDS011;39836;52.754;6.866;2023-04-25T14:39:01;8.55;;;1.92;;
53925;SDS011;39836;52.754;6.866;2023-04-25T14:41:26;7.75;;;1.75;;
53925;SDS011;39836;52.754;6.866;2023-04-25T14:43:52;3.42;;;1.80;;
53925;SDS011;39836;52.754;6.866;2023-04-25T14:46:21;9.77;;;2.00;;
53925;SDS011;39836;52.754;6.866;2023-04-25T14:48:48;10.25;;;2.42;;
53925;SDS011;39836;52.754;6.866;2023-04-25T14:51:14;10.25;;;2.50;;
53925;SDS011;39836;52.754;6.866;2023-04-25T14:53:40;9.05;;;2.25;;